Hatton, Washington
Current Conditions -  °F | °C
As of 3:52 AM on Saturday 25 Oct 2014 (Local Time) from KMWH Reporting Station
Light Rain Light Rain  
Wind Chill: 44°   Ceiling: Unl
Heat Index: 49°   Visibility: 6mi
Dew Point: 45°   Wind: 12mph
Humidity: 86%   Direction: 350°N
Pressure: 29.78"   Gusts: NA
Location:  46.78°N, 118.83°W
Report Text: KMWH 251052Z AUTO 35010KT 6SM -RA BR CLR 09/07 A2978 RMK AO2 SLP086 P0000 T00940072 TSNO
Loading
Personal Weather Stations






























Interactive Weather Map
Tropical Storm Tracking
New forecast layout! Learn more

10-Day Weather Forecast

Advertisements
Track Severe Weather on mobile